Time,TemperatureF,DewpointF,PressureIn,WindDirection,WindDirectionDegrees,WindSpeedMPH,WindSpeedGustMPH,Humidity,HourlyPrecipIn,Conditions,Clouds,dailyrainin,SolarRadiationWatts/m^2,SoftwareType,DateUTC
2013-08-11 00:13:00,66.6,39.0,30.07,East,86,0.0,-999.0,37,-99.99,,,0.00,0,weatherlink.com 1.10,2013-08-11 06:13:00,
2013-08-11 00:28:00,66.4,39.0,30.07,East,90,0.0,-999.0,36,-99.99,,,0.00,0,weatherlink.com 1.10,2013-08-11 06:28:00,
2013-08-11 00:43:00,67.3,38.0,30.07,NNW,346,0.0,-999.0,34,-99.99,,,0.00,0,weatherlink.com 1.10,2013-08-11 06:43:00,
2013-08-11 00:58:00,67.4,38.0,30.07,NNW,346,0.0,-999.0,34,-99.99,,,0.00,0,weatherlink.com 1.10,2013-08-11 06:58:00,
2013-08-11 01:13:00,67.6,38.0,30.06,NNW,327,0.0,-999.0,34,-99.99,,,0.00,0,weatherlink.com 1.10,2013-08-11 07:13:00,
2013-08-11 01:28:00,66.8,39.0,30.06,NNW,328,0.0,-999.0,36,-99.99,,,0.00,0,weatherlink.com 1.10,2013-08-11 07:28:00,
2013-08-11 01:43:00,66.2,39.0,30.06,NNW,328,0.0,-999.0,37,-99.99,,,0.00,0,weatherlink.com 1.10,2013-08-11 07:43:00,
2013-08-11 01:58:00,65.5,39.0,30.06,NNW,327,0.0,-999.0,38,-99.99,,,0.00,0,weatherlink.com 1.10,2013-08-11 07:58:00,
2013-08-11 02:13:00,64.0,39.0,30.06,NW,316,0.0,-999.0,40,-99.99,,,0.00,0,weatherlink.com 1.10,2013-08-11 08:13:00,
2013-08-11 02:28:00,63.4,41.0,30.05,NW,319,0.0,-999.0,44,-99.99,,,0.00,0,weatherlink.com 1.10,2013-08-11 08:28:00,
2013-08-11 02:43:00,61.7,42.0,30.05,NW,324,0.0,-999.0,48,-99.99,,,0.00,0,weatherlink.com 1.10,2013-08-11 08:43:00,
2013-08-11 03:28:00,58.0,40.0,30.06,NNE,15,3.0,-999.0,52,-99.99,,,0.00,0,weatherlink.com 1.10,2013-08-11 09:28:00,
2013-08-11 03:43:00,57.8,41.0,30.05,NNW,344,2.0,-999.0,53,-99.99,,,0.00,0,weatherlink.com 1.10,2013-08-11 09:43:00,
2013-08-11 03:58:00,58.2,40.0,30.05,North,11,4.0,-999.0,52,-99.99,,,0.00,0,weatherlink.com 1.10,2013-08-11 09:58:00,
2013-08-11 04:13:00,58.0,41.0,30.06,NW,308,0.0,-999.0,54,-99.99,,,0.00,0,weatherlink.com 1.10,2013-08-11 10:13:00,
2013-08-11 04:28:00,57.7,42.0,30.05,NE,44,3.0,-999.0,56,-99.99,,,0.00,0,weatherlink.com 1.10,2013-08-11 10:28:00,
2013-08-11 04:43:00,57.4,43.0,30.05,NE,46,0.0,-999.0,59,-99.99,,,0.00,0,weatherlink.com 1.10,2013-08-11 10:43:00,
2013-08-11 04:58:00,57.3,43.0,30.06,SW,223,0.0,-999.0,59,-99.99,,,0.00,0,weatherlink.com 1.10,2013-08-11 10:58:00,
2013-08-11 05:28:00,57.6,40.0,30.06,NNW,337,0.0,-999.0,53,-99.99,,,0.00,0,weatherlink.com 1.10,2013-08-11 11:28:00,
2013-08-11 05:43:00,57.8,41.0,30.07,NW,322,0.0,-999.0,53,-99.99,,,0.00,0,weatherlink.com 1.10,2013-08-11 11:43:00,
2013-08-11 05:58:00,57.2,40.0,30.07,NW,322,0.0,-999.0,54,-99.99,,,0.00,0,weatherlink.com 1.10,2013-08-11 11:58:00,
2013-08-11 06:13:00,56.4,40.0,30.07,NW,322,0.0,-999.0,55,-99.99,,,0.00,0,weatherlink.com 1.10,2013-08-11 12:13:00,
2013-08-11 06:28:00,55.5,40.0,30.08,WSW,252,0.0,-999.0,57,-99.99,,,0.00,5,weatherlink.com 1.10,2013-08-11 12:28:00,
2013-08-11 06:43:00,54.7,40.0,30.08,WSW,252,0.0,-999.0,58,-99.99,,,0.00,14,weatherlink.com 1.10,2013-08-11 12:43:00,
2013-08-11 07:13:00,55.1,39.0,30.09,West,265,0.0,-999.0,55,-99.99,,,0.00,69,weatherlink.com 1.10,2013-08-11 13:13:00,
2013-08-11 07:28:00,56.9,40.0,30.09,NW,323,2.0,-999.0,53,-99.99,,,0.00,84,weatherlink.com 1.10,2013-08-11 13:28:00,
2013-08-11 07:43:00,58.9,41.0,30.09,NNE,23,2.0,-999.0,51,-99.99,,,0.00,90,weatherlink.com 1.10,2013-08-11 13:43:00,
2013-08-11 08:14:00,60.0,42.0,30.09,WNW,296,2.0,-999.0,52,-99.99,,,0.00,311,weatherlink.com 1.10,2013-08-11 14:14:00,
2013-08-11 08:44:00,63.8,42.0,30.09,WNW,286,0.0,-999.0,45,-99.99,,,0.00,155,weatherlink.com 1.10,2013-08-11 14:44:00,
2013-08-11 08:59:00,64.0,41.0,30.09,WNW,287,0.0,-999.0,43,-99.99,,,0.00,142,weatherlink.com 1.10,2013-08-11 14:59:00,
2013-08-11 09:14:00,64.8,43.0,30.09,WNW,300,0.0,-999.0,45,-99.99,,,0.00,496,weatherlink.com 1.10,2013-08-11 15:14:00,
2013-08-11 09:29:00,67.3,43.0,30.09,West,281,0.0,-999.0,42,-99.99,,,0.00,533,weatherlink.com 1.10,2013-08-11 15:29:00,
2013-08-11 09:44:00,69.7,44.0,30.08,WNW,290,0.0,-999.0,40,-99.99,,,0.00,577,weatherlink.com 1.10,2013-08-11 15:44:00,
2013-08-11 10:14:00,73.2,42.0,30.07,WSW,240,0.0,-999.0,32,-99.99,,,0.00,643,weatherlink.com 1.10,2013-08-11 16:14:00,
2013-08-11 10:29:00,73.9,41.0,30.07,SW,229,0.0,-999.0,31,-99.99,,,0.00,684,weatherlink.com 1.10,2013-08-11 16:29:00,
2013-08-11 10:44:00,73.7,40.0,30.07,SSW,200,0.0,-999.0,30,-99.99,,,0.00,719,weatherlink.com 1.10,2013-08-11 16:44:00,
2013-08-11 10:59:00,74.4,41.0,30.06,SSW,200,0.0,-999.0,30,-99.99,,,0.00,745,weatherlink.com 1.10,2013-08-11 16:59:00,
2013-08-11 11:14:00,75.5,42.0,30.05,ESE,122,5.0,-999.0,30,-99.99,,,0.00,770,weatherlink.com 1.10,2013-08-11 17:14:00,
2013-08-11 11:29:00,76.6,41.0,30.05,SSE,161,4.0,-999.0,28,-99.99,,,0.00,798,weatherlink.com 1.10,2013-08-11 17:29:00,
2013-08-11 11:44:00,77.3,42.0,30.04,SSW,204,0.0,-999.0,28,-99.99,,,0.00,814,weatherlink.com 1.10,2013-08-11 17:44:00,
2013-08-11 12:00:00,78.3,43.0,30.04,SW,234,3.0,-999.0,28,-99.99,,,0.00,833,weatherlink.com 1.10,2013-08-11 18:00:00,
2013-08-11 12:30:00,79.9,40.0,30.02,SW,234,5.0,-999.0,24,-99.99,,,0.00,874,weatherlink.com 1.10,2013-08-11 18:30:00,
2013-08-11 12:45:00,80.4,40.0,30.01,South,171,0.0,-999.0,24,-99.99,,,0.00,884,weatherlink.com 1.10,2013-08-11 18:45:00,
2013-08-11 13:00:00,81.2,41.0,30.00,SSE,168,4.0,-999.0,24,-99.99,,,0.00,884,weatherlink.com 1.10,2013-08-11 19:00:00,
2013-08-11 13:30:00,82.0,33.0,29.99,SE,128,0.0,-999.0,17,-99.99,,,0.00,882,weatherlink.com 1.10,2013-08-11 19:30:00,
2013-08-11 13:45:00,83.1,35.0,29.99,ESE,109,0.0,-999.0,18,-99.99,,,0.00,881,weatherlink.com 1.10,2013-08-11 19:45:00,
2013-08-11 14:15:00,84.5,34.0,29.98,NE,49,3.0,-999.0,16,-99.99,,,0.00,881,weatherlink.com 1.10,2013-08-11 20:15:00,
2013-08-11 14:30:00,85.8,38.0,29.98,WNW,294,4.0,-999.0,18,-99.99,,,0.00,881,weatherlink.com 1.10,2013-08-11 20:30:00,
2013-08-11 14:45:00,87.5,31.0,29.98,SW,231,0.0,-999.0,13,-99.99,,,0.00,851,weatherlink.com 1.10,2013-08-11 20:45:00,
2013-08-11 15:00:00,86.3,30.0,29.98,WNW,303,0.0,-999.0,13,-99.99,,,0.00,214,weatherlink.com 1.10,2013-08-11 21:00:00,
2013-08-11 15:15:00,84.9,25.0,29.98,North,9,0.0,-999.0,11,-99.99,,,0.00,248,weatherlink.com 1.10,2013-08-11 21:15:00,
2013-08-11 15:30:00,84.1,33.0,29.98,NW,311,5.0,-999.0,16,-99.99,,,0.00,274,weatherlink.com 1.10,2013-08-11 21:30:00,
2013-08-11 15:45:00,83.7,37.0,29.99,NW,321,11.0,-999.0,19,-99.99,,,0.00,366,weatherlink.com 1.10,2013-08-11 21:45:00,
2013-08-11 16:00:00,80.1,38.0,29.98,WNW,298,23.0,-999.0,22,-99.99,,,0.00,260,weatherlink.com 1.10,2013-08-11 22:00:00,
2013-08-11 16:15:00,80.3,38.0,29.98,NW,321,18.0,-999.0,22,-99.99,,,0.00,754,weatherlink.com 1.10,2013-08-11 22:15:00,
2013-08-11 16:45:00,81.5,37.0,29.98,WNW,300,17.0,-999.0,20,-99.99,,,0.00,550,weatherlink.com 1.10,2013-08-11 22:45:00,
2013-08-11 17:00:00,80.8,33.0,29.98,West,275,18.0,-999.0,18,-99.99,,,0.00,185,weatherlink.com 1.10,2013-08-11 23:00:00,
2013-08-11 17:15:00,80.0,34.0,29.98,WNW,288,17.0,-999.0,19,-99.99,,,0.00,332,weatherlink.com 1.10,2013-08-11 23:15:00,
2013-08-11 17:30:00,79.4,35.0,29.98,WNW,291,19.0,-999.0,20,-99.99,,,0.00,127,weatherlink.com 1.10,2013-08-11 23:30:00,
2013-08-11 17:45:00,78.2,35.0,29.97,WNW,291,16.0,-999.0,21,-99.99,,,0.00,72,weatherlink.com 1.10,2013-08-11 23:45:00,
2013-08-11 18:00:00,77.6,36.0,29.97,WNW,291,12.0,-999.0,22,-99.99,,,0.00,54,weatherlink.com 1.10,2013-08-12 00:00:00,
2013-08-11 18:15:00,77.3,33.0,29.97,WNW,284,0.0,-999.0,20,-99.99,,,0.00,97,weatherlink.com 1.10,2013-08-12 00:15:00,
2013-08-11 19:00:00,80.9,31.0,29.96,WNW,291,0.0,-999.0,16,-99.99,,,0.00,195,weatherlink.com 1.10,2013-08-12 01:00:00,
2013-08-11 19:30:00,79.7,35.0,29.97,SSE,153,0.0,-999.0,20,-99.99,,,0.00,40,weatherlink.com 1.10,2013-08-12 01:30:00,
2013-08-11 19:45:00,78.8,36.0,29.97,SSE,153,0.0,-999.0,21,-99.99,,,0.00,33,weatherlink.com 1.10,2013-08-12 01:45:00,
2013-08-11 20:30:00,74.2,40.0,29.99,North,360,3.0,-999.0,29,-99.99,,,0.00,0,weatherlink.com 1.10,2013-08-12 02:30:00,
2013-08-11 20:45:00,72.1,37.0,29.99,ENE,67,5.0,-999.0,28,-99.99,,,0.00,0,weatherlink.com 1.10,2013-08-12 02:45:00,
2013-08-11 21:00:00,71.7,37.0,30.00,NE,46,7.0,-999.0,28,-99.99,,,0.00,0,weatherlink.com 1.10,2013-08-12 03:00:00,
2013-08-11 21:15:00,71.3,36.0,30.00,NE,56,0.0,-999.0,27,-99.99,,,0.00,0,weatherlink.com 1.10,2013-08-12 03:15:00,
2013-08-11 21:45:00,71.1,37.0,30.02,ENE,71,8.0,-999.0,29,-99.99,,,0.00,0,weatherlink.com 1.10,2013-08-12 03:45:00,
2013-08-11 22:00:00,70.0,39.0,30.02,East,96,6.0,-999.0,32,-99.99,,,0.00,0,weatherlink.com 1.10,2013-08-12 04:00:00,
2013-08-11 22:16:00,70.1,39.0,30.02,SE,128,12.0,-999.0,32,-99.99,,,0.00,0,weatherlink.com 1.10,2013-08-12 04:16:00,
2013-08-11 22:31:00,69.5,39.0,30.02,East,98,6.0,-999.0,33,-99.99,,,0.00,0,weatherlink.com 1.10,2013-08-12 04:31:00,
2013-08-11 22:46:00,69.4,39.0,30.02,ESE,106,2.0,-999.0,33,-99.99,,,0.00,0,weatherlink.com 1.10,2013-08-12 04:46:00,
2013-08-11 23:01:00,69.1,39.0,30.02,ENE,75,7.0,-999.0,33,-99.99,,,0.00,0,weatherlink.com 1.10,2013-08-12 05:01:00,
2013-08-11 23:16:00,68.3,40.0,30.02,ENE,64,10.0,-999.0,35,-99.99,,,0.00,0,weatherlink.com 1.10,2013-08-12 05:16:00,
2013-08-11 23:31:00,65.4,40.0,30.03,NE,48,0.0,-999.0,39,-99.99,,,0.00,0,weatherlink.com 1.10,2013-08-12 05:31:00,
2013-08-11 23:46:00,64.9,40.0,30.03,NE,44,4.0,-999.0,40,-99.99,,,0.00,0,weatherlink.com 1.10,2013-08-12 05:46:00,